Time;durP1;ratioP1;P1;durP2;ratioP2;P2;SDS_P1;SDS_P2;PMS_P1;PMS_P2;Temp;Humidity;BMP_temperature;BMP_pressure;BME280_temperature;BME280_humidity;BME280_pressure;Samples;Min_cycle;Max_cycle;Signal;HPM_P1;HPM_P2
2021/01/22 00:01:25;;;;;;;2.00;0.30;;;;;;;;;;4935351;29;20028;-80
2021/01/22 00:03:52;;;;;;;0.43;0.20;;;;;;;;;;4934884;29;20437;-80
2021/01/22 00:06:18;;;;;;;0.10;0.10;;;;;;;;;;4949811;28;20493;-80
2021/01/22 00:08:44;;;;;;;0.10;0.10;;;;;;;;;;4950634;28;20386;-80
2021/01/22 00:11:10;;;;;;;0.20;0.10;;;;;;;;;;4935730;29;20039;-80
2021/01/22 00:13:36;;;;;;;0.93;0.20;;;;;;;;;;4952138;29;20398;-80
2021/01/22 00:16:03;;;;;;;0.60;0.20;;;;;;;;;;4938289;28;20039;-80
2021/01/22 00:18:29;;;;;;;0.57;0.20;;;;;;;;;;4947887;28;20087;-80
2021/01/22 00:20:55;;;;;;;0.63;0.20;;;;;;;;;;4951340;28;20032;-79
2021/01/22 00:23:21;;;;;;;1.03;0.10;;;;;;;;;;4950554;29;20039;-80
2021/01/22 00:25:47;;;;;;;1.53;0.20;;;;;;;;;;4951448;28;20066;-79
2021/01/22 00:28:13;;;;;;;0.40;0.23;;;;;;;;;;4934240;29;20091;-80
2021/01/22 00:30:39;;;;;;;0.30;0.20;;;;;;;;;;4935928;29;20070;-80
2021/01/22 00:33:06;;;;;;;0.57;0.27;;;;;;;;;;4950164;29;20057;-80
2021/01/22 00:35:32;;;;;;;0.23;0.20;;;;;;;;;;4951392;29;20071;-80
2021/01/22 00:37:58;;;;;;;1.20;0.40;;;;;;;;;;4949214;28;20484;-80
2021/01/22 00:40:24;;;;;;;0.87;0.30;;;;;;;;;;4951299;29;20035;-80
2021/01/22 00:42:50;;;;;;;0.27;0.10;;;;;;;;;;4951462;29;20036;-80
2021/01/22 00:45:16;;;;;;;0.50;0.17;;;;;;;;;;4947601;28;20442;-79
2021/01/22 00:47:42;;;;;;;0.67;0.23;;;;;;;;;;4959699;28;20075;-80
2021/01/22 00:50:08;;;;;;;0.73;0.23;;;;;;;;;;4945299;29;20046;-79
2021/01/22 00:52:34;;;;;;;1.20;0.10;;;;;;;;;;4950970;29;20059;-80
2021/01/22 00:55:00;;;;;;;0.50;0.20;;;;;;;;;;4951030;29;20031;-79
2021/01/22 00:57:26;;;;;;;0.43;0.13;;;;;;;;;;4933442;29;20753;-80
2021/01/22 00:59:54;;;;;;;0.60;0.40;;;;;;;;;;4947991;29;20160;-79
2021/01/22 01:02:20;;;;;;;0.73;0.20;;;;;;;;;;4950521;29;20023;-80
2021/01/22 01:04:46;;;;;;;0.67;0.40;;;;;;;;;;4951232;29;20031;-80
2021/01/22 01:07:12;;;;;;;0.70;0.20;;;;;;;;;;4944356;28;20028;-79
2021/01/22 01:09:38;;;;;;;0.17;0.10;;;;;;;;;;4950712;29;20040;-79
2021/01/22 01:12:04;;;;;;;2.23;0.30;;;;;;;;;;4935332;29;20595;-79
2021/01/22 01:14:30;;;;;;;2.07;0.60;;;;;;;;;;4935179;29;20094;-80
2021/01/22 01:16:56;;;;;;;0.50;0.20;;;;;;;;;;4932904;29;20051;-80
2021/01/22 01:19:22;;;;;;;0.63;0.30;;;;;;;;;;4942390;28;20140;-80
2021/01/22 01:21:49;;;;;;;0.80;0.30;;;;;;;;;;4940568;29;20123;-80
2021/01/22 01:24:15;;;;;;;1.20;0.30;;;;;;;;;;4950876;29;20024;-79
2021/01/22 01:26:44;;;;;;;0.20;0.20;;;;;;;;;;4933546;29;20031;-80
2021/01/22 01:29:10;;;;;;;1.80;0.30;;;;;;;;;;4937066;28;20040;-80
2021/01/22 01:31:36;;;;;;;0.50;0.30;;;;;;;;;;4941461;29;20035;-80
2021/01/22 01:34:02;;;;;;;0.10;0.10;;;;;;;;;;4950132;29;20067;-79
2021/01/22 01:36:28;;;;;;;0.90;0.20;;;;;;;;;;4949368;29;20588;-80
2021/01/22 01:38:54;;;;;;;0.40;0.20;;;;;;;;;;4949024;29;20024;-80
2021/01/22 01:41:20;;;;;;;0.77;0.37;;;;;;;;;;4934502;29;20055;-80
2021/01/22 01:43:46;;;;;;;1.13;0.40;;;;;;;;;;4949569;29;20036;-80
2021/01/22 01:46:12;;;;;;;1.43;0.50;;;;;;;;;;4933474;29;20070;-78
2021/01/22 01:48:38;;;;;;;0.93;0.33;;;;;;;;;;4934814;29;20039;-79
2021/01/22 01:51:05;;;;;;;1.47;0.60;;;;;;;;;;4934412;29;20034;-80
2021/01/22 01:53:31;;;;;;;1.37;0.40;;;;;;;;;;4934710;29;20057;-79
2021/01/22 01:55:57;;;;;;;1.60;0.60;;;;;;;;;;4965965;28;20027;-79
2021/01/22 01:58:25;;;;;;;0.43;0.30;;;;;;;;;;4945596;28;20039;-80
2021/01/22 02:00:51;;;;;;;1.37;0.60;;;;;;;;;;4933357;29;20779;-79
2021/01/22 02:03:17;;;;;;;0.83;0.47;;;;;;;;;;4933118;29;20039;-80
2021/01/22 02:05:45;;;;;;;0.43;0.20;;;;;;;;;;4930864;29;20071;-79
2021/01/22 02:08:11;;;;;;;0.83;0.30;;;;;;;;;;4945003;28;20126;-79
2021/01/22 02:10:37;;;;;;;0.87;0.30;;;;;;;;;;4950123;29;20035;-78
2021/01/22 02:13:04;;;;;;;0.50;0.20;;;;;;;;;;4948778;28;20139;-79
2021/01/22 02:15:31;;;;;;;0.43;0.23;;;;;;;;;;4950593;28;20039;-79
2021/01/22 02:17:57;;;;;;;0.60;0.30;;;;;;;;;;4959285;28;20075;-79
2021/01/22 02:20:23;;;;;;;1.17;0.40;;;;;;;;;;4934984;29;20031;-80
2021/01/22 02:22:50;;;;;;;0.80;0.30;;;;;;;;;;4954045;28;20070;-78
2021/01/22 02:25:18;;;;;;;0.93;0.30;;;;;;;;;;4955178;28;20047;-79
2021/01/22 02:27:44;;;;;;;0.87;0.40;;;;;;;;;;4934222;29;20039;-78
2021/01/22 02:30:11;;;;;;;2.30;0.40;;;;;;;;;;4931765;29;20036;-78
2021/01/22 02:32:40;;;;;;;1.07;0.37;;;;;;;;;;4935546;29;20039;-79
2021/01/22 02:35:08;;;;;;;2.77;0.40;;;;;;;;;;4934674;29;20044;-78
2021/01/22 02:37:36;;;;;;;0.67;0.30;;;;;;;;;;4949951;28;20028;-80
2021/01/22 02:40:06;;;;;;;2.60;0.47;;;;;;;;;;4950903;29;20027;-79
2021/01/22 02:42:32;;;;;;;2.83;0.30;;;;;;;;;;4934899;29;20032;-79
2021/01/22 02:44:58;;;;;;;0.83;0.30;;;;;;;;;;4950499;28;20438;-79
2021/01/22 02:47:25;;;;;;;2.07;0.30;;;;;;;;;;4932421;29;20032;-79
2021/01/22 02:49:52;;;;;;;2.27;0.40;;;;;;;;;;4951522;29;20441;-79
2021/01/22 02:52:18;;;;;;;3.10;0.40;;;;;;;;;;4934940;29;20020;-78
2021/01/22 02:54:44;;;;;;;1.80;0.50;;;;;;;;;;4957371;29;20087;-77
2021/01/22 02:57:22;;;;;;;2.53;0.60;;;;;;;;;;4946208;29;20050;-77
2021/01/22 02:59:51;;;;;;;3.67;0.70;;;;;;;;;;4949127;28;20474;-79
2021/01/22 03:02:36;;;;;;;3.33;0.50;;;;;;;;;;4935269;29;20036;-79
2021/01/22 03:05:03;;;;;;;1.80;0.50;;;;;;;;;;4937690;29;20034;-80
2021/01/22 03:07:45;;;;;;;2.93;0.60;;;;;;;;;;4950220;28;20027;-79
2021/01/22 03:10:11;;;;;;;2.60;0.80;;;;;;;;;;4936237;29;20039;-77
2021/01/22 03:12:38;;;;;;;5.20;0.90;;;;;;;;;;4937278;29;20484;-79
2021/01/22 03:15:04;;;;;;;3.33;0.70;;;;;;;;;;4936927;29;20039;-78
2021/01/22 03:17:31;;;;;;;8.40;1.47;;;;;;;;;;4934360;29;20031;-78
2021/01/22 03:19:57;;;;;;;5.53;0.87;;;;;;;;;;4950587;28;20481;-79
2021/01/22 03:22:23;;;;;;;2.57;0.57;;;;;;;;;;4951033;29;20043;-77
2021/01/22 03:24:49;;;;;;;2.27;0.67;;;;;;;;;;4952186;28;20490;-79
2021/01/22 03:27:15;;;;;;;1.80;0.70;;;;;;;;;;4936543;29;20083;-79
2021/01/22 03:29:42;;;;;;;2.37;0.50;;;;;;;;;;4950664;29;20042;-78
2021/01/22 03:32:08;;;;;;;2.93;0.70;;;;;;;;;;4950982;29;20038;-79
2021/01/22 03:34:35;;;;;;;3.43;0.60;;;;;;;;;;4950308;28;20123;-79
2021/01/22 03:37:01;;;;;;;3.93;0.80;;;;;;;;;;4926261;29;20031;-78
2021/01/22 03:39:28;;;;;;;2.73;0.67;;;;;;;;;;4950689;28;20127;-79
2021/01/22 03:41:54;;;;;;;4.70;0.60;;;;;;;;;;4937196;29;20032;-77
2021/01/22 03:44:21;;;;;;;4.93;0.90;;;;;;;;;;4933943;29;20024;-79
2021/01/22 03:46:47;;;;;;;4.00;0.67;;;;;;;;;;4950114;29;20063;-79
2021/01/22 03:49:13;;;;;;;4.97;0.60;;;;;;;;;;4932742;29;20045;-78
2021/01/22 03:51:39;;;;;;;1.97;0.53;;;;;;;;;;4950721;28;20069;-79
2021/01/22 03:54:06;;;;;;;3.57;0.80;;;;;;;;;;4940666;29;20036;-78
2021/01/22 03:56:32;;;;;;;3.47;1.77;;;;;;;;;;4950108;29;20138;-77
2021/01/22 03:58:59;;;;;;;7.37;1.30;;;;;;;;;;4933369;29;20505;-79
2021/01/22 04:01:28;;;;;;;2.60;0.90;;;;;;;;;;4934701;29;20035;-76
2021/01/22 04:03:54;;;;;;;4.00;0.93;;;;;;;;;;4940315;28;20035;-76
2021/01/22 04:06:20;;;;;;;4.33;0.80;;;;;;;;;;4938597;29;20091;-75
2021/01/22 04:08:46;;;;;;;7.10;1.33;;;;;;;;;;4960547;28;20043;-76
2021/01/22 04:11:12;;;;;;;7.73;2.03;;;;;;;;;;4931244;29;20039;-78
2021/01/22 04:13:39;;;;;;;4.97;1.40;;;;;;;;;;4933399;29;20575;-77
2021/01/22 04:16:05;;;;;;;4.40;1.57;;;;;;;;;;4932803;29;20414;-78
2021/01/22 04:18:31;;;;;;;7.43;2.63;;;;;;;;;;4946353;28;20032;-78
2021/01/22 04:20:57;;;;;;;7.07;2.50;;;;;;;;;;4950012;28;20026;-78
2021/01/22 04:23:23;;;;;;;4.27;1.53;;;;;;;;;;4952741;29;20077;-78
2021/01/22 04:25:49;;;;;;;2.90;1.07;;;;;;;;;;4952282;29;20462;-76
2021/01/22 04:28:16;;;;;;;4.90;1.63;;;;;;;;;;4951093;28;20118;-78
2021/01/22 04:30:42;;;;;;;3.87;1.20;;;;;;;;;;4936631;29;20062;-78
2021/01/22 04:33:08;;;;;;;4.43;1.20;;;;;;;;;;4937846;29;20118;-78
2021/01/22 04:35:34;;;;;;;3.93;1.20;;;;;;;;;;4937628;29;20028;-76
2021/01/22 04:38:00;;;;;;;3.40;1.20;;;;;;;;;;4948103;28;20027;-78
2021/01/22 04:40:27;;;;;;;3.50;1.17;;;;;;;;;;4936280;29;20061;-79
2021/01/22 04:42:53;;;;;;;4.13;1.40;;;;;;;;;;4931780;29;20040;-77
2021/01/22 04:45:19;;;;;;;6.33;1.43;;;;;;;;;;4950651;29;20035;-77
2021/01/22 04:47:45;;;;;;;5.10;1.30;;;;;;;;;;4935082;29;20055;-78
2021/01/22 04:50:15;;;;;;;5.00;1.60;;;;;;;;;;4955573;28;20095;-78
2021/01/22 04:52:42;;;;;;;4.17;1.17;;;;;;;;;;4966990;28;20055;-78
2021/01/22 04:55:11;;;;;;;5.37;1.83;;;;;;;;;;4935869;29;20078;-78
2021/01/22 04:57:44;;;;;;;6.27;2.50;;;;;;;;;;4948420;28;20020;-77
2021/01/22 05:00:13;;;;;;;6.80;1.70;;;;;;;;;;4937244;29;20033;-78
2021/01/22 05:02:39;;;;;;;6.67;1.60;;;;;;;;;;4952115;29;20027;-78
2021/01/22 05:05:06;;;;;;;8.27;1.77;;;;;;;;;;4951659;29;20031;-78
2021/01/22 05:07:32;;;;;;;5.30;1.23;;;;;;;;;;4938133;29;20026;-76
2021/01/22 05:09:59;;;;;;;2.07;0.93;;;;;;;;;;4951562;29;20063;-76
2021/01/22 05:12:38;;;;;;;3.37;1.10;;;;;;;;;;4935316;29;20031;-77
2021/01/22 05:15:21;;;;;;;4.20;1.00;;;;;;;;;;4935528;29;20726;-77
2021/01/22 05:17:53;;;;;;;3.58;0.70;;;;;;;;;;4923580;29;20024;-74
2021/01/22 05:20:26;;;;;;;6.10;0.97;;;;;;;;;;4925060;29;20454;-77
2021/01/22 05:22:52;;;;;;;1.67;0.73;;;;;;;;;;4949060;29;20087;-77
2021/01/22 05:25:18;;;;;;;3.90;1.00;;;;;;;;;;4934577;29;20032;-75
2021/01/22 05:27:48;;;;;;;1.63;0.57;;;;;;;;;;4933456;29;20027;-77
2021/01/22 05:30:14;;;;;;;4.70;0.80;;;;;;;;;;4933429;29;20573;-77
2021/01/22 05:32:40;;;;;;;3.40;0.63;;;;;;;;;;4934140;29;20110;-77
2021/01/22 05:35:07;;;;;;;3.40;0.80;;;;;;;;;;4949753;29;20524;-78
2021/01/22 05:37:33;;;;;;;5.03;1.20;;;;;;;;;;4930687;29;20450;-77
2021/01/22 05:40:12;;;;;;;3.13;1.70;;;;;;;;;;4934297;29;20103;-77
2021/01/22 05:42:51;;;;;;;2.40;0.70;;;;;;;;;;4937546;29;20039;-77
2021/01/22 05:45:19;;;;;;;0.87;0.33;;;;;;;;;;4933480;29;20060;-76
2021/01/22 05:47:45;;;;;;;0.67;0.30;;;;;;;;;;4928984;29;20020;-77
2021/01/22 05:50:11;;;;;;;2.03;0.47;;;;;;;;;;4932077;29;20130;-77
2021/01/22 05:52:37;;;;;;;2.43;0.73;;;;;;;;;;4947526;29;20023;-78
2021/01/22 05:55:18;;;;;;;1.70;0.77;;;;;;;;;;4949038;29;20016;-77
2021/01/22 05:57:44;;;;;;;5.23;1.30;;;;;;;;;;4946206;28;20035;-77
2021/01/22 06:00:14;;;;;;;4.10;1.10;;;;;;;;;;4942757;29;20032;-77
2021/01/22 06:02:40;;;;;;;11.30;4.43;;;;;;;;;;4948483;29;20036;-77
2021/01/22 06:05:16;;;;;;;34.53;18.20;;;;;;;;;;4934307;29;20031;-77
2021/01/22 06:07:44;;;;;;;34.33;22.23;;;;;;;;;;4922545;29;20049;-76
2021/01/22 06:10:13;;;;;;;9.03;4.87;;;;;;;;;;4932737;29;20047;-76
2021/01/22 06:12:43;;;;;;;6.20;3.70;;;;;;;;;;4950011;29;20027;-78
2021/01/22 06:15:11;;;;;;;5.10;1.50;;;;;;;;;;4925524;29;20032;-77
2021/01/22 06:17:38;;;;;;;3.87;1.57;;;;;;;;;;4933861;29;20123;-77
2021/01/22 06:20:07;;;;;;;6.63;2.33;;;;;;;;;;4948634;28;20031;-76
2021/01/22 06:22:36;;;;;;;4.90;1.60;;;;;;;;;;4933727;29;20038;-76
2021/01/22 06:25:02;;;;;;;2.23;0.53;;;;;;;;;;4935247;29;20028;-77
2021/01/22 06:27:31;;;;;;;3.77;1.70;;;;;;;;;;4933256;29;20051;-76
2021/01/22 06:29:58;;;;;;;4.33;1.57;;;;;;;;;;4933606;29;20039;-77
2021/01/22 06:32:24;;;;;;;4.00;1.50;;;;;;;;;;4931476;29;20079;-77
2021/01/22 06:34:51;;;;;;;3.77;1.17;;;;;;;;;;4931248;29;20040;-78
2021/01/22 06:37:17;;;;;;;3.83;1.47;;;;;;;;;;4925126;29;20023;-77
2021/01/22 06:39:44;;;;;;;4.13;1.27;;;;;;;;;;4924503;29;20028;-77
2021/01/22 06:42:10;;;;;;;3.57;1.30;;;;;;;;;;4919536;29;20095;-76
2021/01/22 06:44:37;;;;;;;1.13;0.30;;;;;;;;;;4938218;29;20054;-75
2021/01/22 06:47:12;;;;;;;3.47;0.50;;;;;;;;;;4937904;29;20107;-77
2021/01/22 06:49:41;;;;;;;6.53;0.77;;;;;;;;;;4946752;28;20493;-78
2021/01/22 06:52:11;;;;;;;3.90;0.60;;;;;;;;;;4932774;29;20058;-77
2021/01/22 06:54:56;;;;;;;3.00;0.80;;;;;;;;;;4931318;29;20031;-77
2021/01/22 06:57:23;;;;;;;2.30;0.63;;;;;;;;;;4944742;28;20028;-77
2021/01/22 06:59:49;;;;;;;5.93;1.97;;;;;;;;;;4924669;29;20035;-77
2021/01/22 07:02:40;;;;;;;4.03;0.90;;;;;;;;;;4942645;29;20099;-77
2021/01/22 07:05:27;;;;;;;4.77;1.50;;;;;;;;;;4944622;29;20032;-77
2021/01/22 07:07:53;;;;;;;4.70;0.83;;;;;;;;;;4939740;28;20637;-76
2021/01/22 07:10:19;;;;;;;8.10;3.57;;;;;;;;;;4926988;29;20058;-76
2021/01/22 07:12:45;;;;;;;4.43;1.00;;;;;;;;;;4932773;29;20031;-77
2021/01/22 07:15:24;;;;;;;13.00;9.17;;;;;;;;;;4933464;29;20627;-77
2021/01/22 07:17:57;;;;;;;11.33;5.80;;;;;;;;;;4933731;29;20122;-76
2021/01/22 07:20:24;;;;;;;2.70;0.98;;;;;;;;;;4935391;29;20031;-76
2021/01/22 07:23:10;;;;;;;4.20;1.70;;;;;;;;;;4930102;29;20026;-76
2021/01/22 07:25:37;;;;;;;3.60;1.80;;;;;;;;;;4948068;28;20043;-76
2021/01/22 07:28:05;;;;;;;3.70;0.87;;;;;;;;;;4930993;29;20031;-77
2021/01/22 07:30:41;;;;;;;5.60;2.13;;;;;;;;;;4946753;29;20119;-77
2021/01/22 07:33:25;;;;;;;2.50;1.00;;;;;;;;;;4932448;29;20032;-77
2021/01/22 07:36:02;;;;;;;3.20;0.63;;;;;;;;;;4928023;29;20023;-77
2021/01/22 07:38:30;;;;;;;4.27;1.33;;;;;;;;;;4939723;28;20047;-76
2021/01/22 07:40:56;;;;;;;7.50;1.53;;;;;;;;;;4948516;28;20140;-77
2021/01/22 07:43:22;;;;;;;2.97;0.80;;;;;;;;;;4954830;28;20031;-77
2021/01/22 07:45:48;;;;;;;3.67;0.90;;;;;;;;;;4946850;28;20468;-77
2021/01/22 07:48:27;;;;;;;5.80;3.23;;;;;;;;;;4942620;28;20063;-76
2021/01/22 07:50:54;;;;;;;3.30;0.80;;;;;;;;;;4937165;29;20024;-78
2021/01/22 07:53:20;;;;;;;6.27;2.00;;;;;;;;;;4930547;29;20020;-75
2021/01/22 07:55:53;;;;;;;4.70;1.33;;;;;;;;;;4931843;29;20130;-75
2021/01/22 07:58:19;;;;;;;6.15;2.75;;;;;;;;;;4949114;28;20028;-76
2021/01/22 08:00:46;;;;;;;5.20;2.30;;;;;;;;;;4934427;29;20028;-76
2021/01/22 08:03:13;;;;;;;6.57;2.73;;;;;;;;;;4946465;29;20027;-75
2021/01/22 08:05:39;;;;;;;7.50;3.13;;;;;;;;;;4931766;29;20408;-76
2021/01/22 08:08:19;;;;;;;4.00;1.10;;;;;;;;;;4946672;28;20028;-76
2021/01/22 08:10:45;;;;;;;4.07;0.90;;;;;;;;;;4948610;28;20514;-77
2021/01/22 08:13:11;;;;;;;3.47;0.97;;;;;;;;;;4947629;29;20135;-75
2021/01/22 08:15:37;;;;;;;3.03;1.00;;;;;;;;;;4932737;29;20032;-76
2021/01/22 08:18:07;;;;;;;4.13;1.33;;;;;;;;;;4945309;28;20024;-76
2021/01/22 08:20:34;;;;;;;3.90;1.40;;;;;;;;;;4946642;28;20666;-76
2021/01/22 08:23:00;;;;;;;3.07;0.90;;;;;;;;;;4947411;29;20075;-76
2021/01/22 08:25:29;;;;;;;3.60;1.37;;;;;;;;;;4932064;29;20040;-76
2021/01/22 08:27:56;;;;;;;3.53;0.83;;;;;;;;;;4942887;28;20040;-76
2021/01/22 08:30:24;;;;;;;15.97;8.50;;;;;;;;;;4941373;29;20035;-76
2021/01/22 08:32:51;;;;;;;3.23;0.80;;;;;;;;;;4947859;28;20035;-76
2021/01/22 08:35:17;;;;;;;5.83;1.70;;;;;;;;;;4922815;29;20367;-77
2021/01/22 08:37:45;;;;;;;10.77;5.30;;;;;;;;;;4927915;29;20513;-78
2021/01/22 08:40:11;;;;;;;3.80;1.50;;;;;;;;;;4955991;28;20051;-77
2021/01/22 08:42:37;;;;;;;6.60;3.10;;;;;;;;;;4947696;28;20031;-78
2021/01/22 08:45:05;;;;;;;3.87;1.10;;;;;;;;;;4935784;29;20035;-76
2021/01/22 08:47:32;;;;;;;9.77;4.73;;;;;;;;;;4949229;28;20031;-78
2021/01/22 08:50:02;;;;;;;9.73;4.43;;;;;;;;;;4950927;29;20019;-76
2021/01/22 08:52:28;;;;;;;4.73;1.77;;;;;;;;;;4950128;29;20028;-78
2021/01/22 08:54:57;;;;;;;12.47;7.50;;;;;;;;;;4950809;29;20273;-76
2021/01/22 08:57:27;;;;;;;8.33;3.67;;;;;;;;;;4952448;28;20829;-78
2021/01/22 08:59:57;;;;;;;2.63;0.87;;;;;;;;;;4952269;28;20118;-78
2021/01/22 09:02:40;;;;;;;4.90;1.38;;;;;;;;;;4938613;29;20039;-74
2021/01/22 09:05:07;;;;;;;2.80;1.27;;;;;;;;;;4926089;29;20032;-75
2021/01/22 09:07:34;;;;;;;2.13;0.80;;;;;;;;;;4941345;28;20036;-76
2021/01/22 09:10:00;;;;;;;3.88;1.55;;;;;;;;;;4933273;29;20122;-76
2021/01/22 09:12:30;;;;;;;4.25;1.98;;;;;;;;;;4945311;28;20529;-76
2021/01/22 09:15:06;;;;;;;3.50;0.85;;;;;;;;;;4930538;29;20020;-76
2021/01/22 09:17:36;;;;;;;4.68;0.90;;;;;;;;;;4931528;29;20087;-77
2021/01/22 09:20:07;;;;;;;5.28;0.95;;;;;;;;;;4946213;28;20032;-76
2021/01/22 09:22:33;;;;;;;4.72;1.25;;;;;;;;;;4946331;29;20028;-75
2021/01/22 09:25:07;;;;;;;4.63;0.75;;;;;;;;;;4947181;29;20047;-77
2021/01/22 09:27:37;;;;;;;3.05;0.73;;;;;;;;;;4931371;29;20024;-75
2021/01/22 09:30:04;;;;;;;3.03;0.70;;;;;;;;;;4946953;29;20051;-75
2021/01/22 09:32:30;;;;;;;2.08;0.60;;;;;;;;;;4945311;29;20079;-74
2021/01/22 09:34:57;;;;;;;3.70;0.80;;;;;;;;;;4946068;29;20024;-76
2021/01/22 09:37:23;;;;;;;3.25;0.98;;;;;;;;;;4937785;29;20031;-76
2021/01/22 09:39:49;;;;;;;5.15;1.13;;;;;;;;;;4947684;28;20031;-76
2021/01/22 09:42:16;;;;;;;3.22;0.95;;;;;;;;;;4949008;29;20020;-76
2021/01/22 09:44:42;;;;;;;4.75;1.20;;;;;;;;;;4948651;29;20175;-75
2021/01/22 09:47:08;;;;;;;2.55;0.88;;;;;;;;;;4943867;29;20040;-77
2021/01/22 09:49:34;;;;;;;3.00;0.80;;;;;;;;;;4945334;28;20043;-74
2021/01/22 09:52:00;;;;;;;3.28;0.85;;;;;;;;;;4949077;29;20028;-75
2021/01/22 09:54:26;;;;;;;2.57;1.00;;;;;;;;;;4945157;29;20047;-77
2021/01/22 09:56:56;;;;;;;2.10;0.70;;;;;;;;;;4945725;28;20043;-77
2021/01/22 09:59:22;;;;;;;5.23;0.80;;;;;;;;;;4948201;28;20042;-78
2021/01/22 10:01:49;;;;;;;2.00;0.67;;;;;;;;;;4950164;29;20068;-77
2021/01/22 10:04:15;;;;;;;5.27;1.10;;;;;;;;;;4947623;29;20466;-76
2021/01/22 10:06:43;;;;;;;3.20;0.90;;;;;;;;;;4947961;29;20032;-77
2021/01/22 10:09:10;;;;;;;4.00;0.77;;;;;;;;;;4947108;28;20027;-75
2021/01/22 10:11:37;;;;;;;4.37;1.00;;;;;;;;;;4951414;29;20039;-78
2021/01/22 10:14:03;;;;;;;9.23;5.00;;;;;;;;;;4949550;29;20016;-76
2021/01/22 10:16:29;;;;;;;3.53;0.90;;;;;;;;;;4941693;29;20054;-77
2021/01/22 10:18:56;;;;;;;4.35;1.05;;;;;;;;;;4938297;28;20032;-77
2021/01/22 10:21:23;;;;;;;3.80;0.90;;;;;;;;;;4933785;29;20015;-77
2021/01/22 10:23:49;;;;;;;4.27;1.10;;;;;;;;;;4932992;29;20024;-75
2021/01/22 10:26:16;;;;;;;4.13;1.20;;;;;;;;;;4944878;28;20611;-75
2021/01/22 10:28:49;;;;;;;3.67;0.83;;;;;;;;;;4935493;29;20041;-76
2021/01/22 10:31:15;;;;;;;4.28;1.05;;;;;;;;;;4947353;28;20065;-76
2021/01/22 10:33:41;;;;;;;2.37;0.60;;;;;;;;;;4945197;29;20756;-77
2021/01/22 10:36:08;;;;;;;3.20;0.57;;;;;;;;;;4931035;29;20060;-77
2021/01/22 10:38:37;;;;;;;1.77;0.60;;;;;;;;;;4947078;28;20031;-77
2021/01/22 10:41:04;;;;;;;1.37;0.57;;;;;;;;;;4944508;29;20058;-77
2021/01/22 10:43:30;;;;;;;3.97;1.17;;;;;;;;;;4944272;29;20024;-75
2021/01/22 10:45:57;;;;;;;7.93;2.10;;;;;;;;;;4943545;28;20032;-76
2021/01/22 10:48:24;;;;;;;7.17;1.57;;;;;;;;;;4929906;29;20028;-76
2021/01/22 10:50:50;;;;;;;5.10;1.60;;;;;;;;;;4944922;29;20115;-76
2021/01/22 10:53:20;;;;;;;3.30;1.17;;;;;;;;;;4945516;29;20027;-77
2021/01/22 10:55:47;;;;;;;2.60;0.93;;;;;;;;;;4942264;28;20036;-76
2021/01/22 10:58:14;;;;;;;3.77;1.20;;;;;;;;;;4933434;29;20078;-77
2021/01/22 11:00:40;;;;;;;4.07;1.40;;;;;;;;;;4946932;29;20020;-77
2021/01/22 11:03:06;;;;;;;4.23;1.73;;;;;;;;;;4926719;29;20079;-78
2021/01/22 11:05:33;;;;;;;7.27;3.50;;;;;;;;;;4949690;29;20052;-77
2021/01/22 11:08:00;;;;;;;5.20;1.93;;;;;;;;;;4927532;28;20031;-78
2021/01/22 11:10:26;;;;;;;2.40;1.03;;;;;;;;;;4942271;29;20035;-77
2021/01/22 11:12:53;;;;;;;3.57;1.37;;;;;;;;;;4945075;29;20501;-76
2021/01/22 11:15:19;;;;;;;3.70;0.90;;;;;;;;;;4929406;29;20072;-77
2021/01/22 11:17:45;;;;;;;2.37;0.90;;;;;;;;;;4933225;28;20030;-77
2021/01/22 11:20:12;;;;;;;3.50;1.50;;;;;;;;;;4947566;28;20126;-77
2021/01/22 11:22:38;;;;;;;5.10;2.20;;;;;;;;;;4931721;29;20131;-77
2021/01/22 11:25:05;;;;;;;3.53;1.13;;;;;;;;;;4949071;29;20027;-79
2021/01/22 11:27:31;;;;;;;2.80;0.70;;;;;;;;;;4935326;29;20755;-77
2021/01/22 11:29:57;;;;;;;1.93;1.03;;;;;;;;;;4947899;28;20035;-77
2021/01/22 11:32:23;;;;;;;4.93;1.10;;;;;;;;;;4937941;29;20036;-78
2021/01/22 11:34:50;;;;;;;1.93;0.90;;;;;;;;;;4939333;29;20019;-76
2021/01/22 11:37:16;;;;;;;2.40;0.70;;;;;;;;;;4937596;29;20190;-77
2021/01/22 11:39:42;;;;;;;1.53;0.90;;;;;;;;;;4949801;28;20028;-76
2021/01/22 11:42:10;;;;;;;0.70;0.53;;;;;;;;;;4973498;28;20015;-77
2021/01/22 11:44:36;;;;;;;1.23;0.63;;;;;;;;;;4957075;28;20042;-79
2021/01/22 11:47:03;;;;;;;1.98;0.70;;;;;;;;;;4951807;28;20513;-77
2021/01/22 11:49:29;;;;;;;1.75;0.60;;;;;;;;;;4954584;28;20123;-79
2021/01/22 11:51:55;;;;;;;1.45;0.60;;;;;;;;;;4933837;29;20059;-77
2021/01/22 11:54:21;;;;;;;1.75;0.73;;;;;;;;;;4967488;28;20067;-77
2021/01/22 11:56:50;;;;;;;2.72;0.73;;;;;;;;;;4952741;28;20054;-77
2021/01/22 11:59:17;;;;;;;1.17;0.68;;;;;;;;;;4949240;29;20086;-75
2021/01/22 12:01:43;;;;;;;1.98;0.82;;;;;;;;;;4962067;29;20091;-77
2021/01/22 12:04:09;;;;;;;1.08;0.50;;;;;;;;;;4961517;28;20144;-76
2021/01/22 12:06:36;;;;;;;1.42;0.60;;;;;;;;;;4958645;28;20081;-76
2021/01/22 12:09:03;;;;;;;2.22;0.60;;;;;;;;;;4956759;28;20052;-77
2021/01/22 12:11:30;;;;;;;3.90;1.42;;;;;;;;;;4943372;29;20106;-76
2021/01/22 12:13:57;;;;;;;0.95;0.50;;;;;;;;;;4947670;29;20087;-76
2021/01/22 12:16:24;;;;;;;1.20;0.50;;;;;;;;;;4959469;28;20027;-77
2021/01/22 12:18:50;;;;;;;2.25;0.50;;;;;;;;;;4955617;28;20098;-76
2021/01/22 12:21:16;;;;;;;2.23;1.00;;;;;;;;;;4950695;28;20036;-77
2021/01/22 12:23:43;;;;;;;1.63;0.65;;;;;;;;;;4941748;29;20032;-76
2021/01/22 12:26:12;;;;;;;0.20;0.20;;;;;;;;;;4950578;29;20099;-77
2021/01/22 12:28:39;;;;;;;0.60;0.30;;;;;;;;;;4940706;28;20069;-77
2021/01/22 12:31:06;;;;;;;0.77;0.50;;;;;;;;;;4967227;28;20019;-77
2021/01/22 12:33:32;;;;;;;0.70;0.40;;;;;;;;;;4951907;28;20043;-76
2021/01/22 12:35:58;;;;;;;0.73;0.37;;;;;;;;;;4967630;28;20328;-76
2021/01/22 12:38:25;;;;;;;1.00;0.30;;;;;;;;;;4965835;28;20020;-77
2021/01/22 12:40:51;;;;;;;1.93;0.40;;;;;;;;;;4952006;29;20047;-78
2021/01/22 12:43:17;;;;;;;1.83;0.53;;;;;;;;;;4969089;28;20028;-77
2021/01/22 12:45:44;;;;;;;1.70;0.63;;;;;;;;;;4944878;28;20019;-76
2021/01/22 12:48:10;;;;;;;2.30;0.67;;;;;;;;;;4951788;28;20170;-76
2021/01/22 12:50:37;;;;;;;3.27;0.57;;;;;;;;;;4952396;28;20056;-77
2021/01/22 12:53:03;;;;;;;2.07;1.20;;;;;;;;;;4966682;28;20020;-77
2021/01/22 12:55:29;;;;;;;1.20;0.40;;;;;;;;;;4954771;28;20075;-77
2021/01/22 12:57:55;;;;;;;1.80;0.53;;;;;;;;;;4965301;28;20107;-77
2021/01/22 13:00:28;;;;;;;1.33;0.50;;;;;;;;;;4963521;28;20063;-78
2021/01/22 13:02:54;;;;;;;1.85;0.60;;;;;;;;;;4948225;29;20032;-79
2021/01/22 13:05:21;;;;;;;3.78;1.27;;;;;;;;;;4947820;29;20028;-77
2021/01/22 13:07:47;;;;;;;5.05;1.88;;;;;;;;;;4932132;29;20035;-76
2021/01/22 13:10:14;;;;;;;3.60;1.30;;;;;;;;;;4943923;28;20027;-78
2021/01/22 13:12:41;;;;;;;3.85;1.20;;;;;;;;;;4949364;29;20486;-79
2021/01/22 13:15:07;;;;;;;1.23;0.73;;;;;;;;;;4933717;29;20091;-78
2021/01/22 13:17:35;;;;;;;1.15;0.60;;;;;;;;;;4948819;28;20027;-78
2021/01/22 13:20:03;;;;;;;3.65;1.13;;;;;;;;;;4934298;29;20031;-76
2021/01/22 13:22:29;;;;;;;1.35;0.88;;;;;;;;;;4949583;29;20019;-79
2021/01/22 13:24:55;;;;;;;3.65;1.27;;;;;;;;;;4950006;29;20032;-79
2021/01/22 13:27:21;;;;;;;3.88;1.33;;;;;;;;;;4949550;28;20051;-79
2021/01/22 13:29:47;;;;;;;1.48;0.52;;;;;;;;;;4940377;28;20421;-78
2021/01/22 13:32:13;;;;;;;1.23;0.60;;;;;;;;;;4941412;28;20039;-78
2021/01/22 13:34:39;;;;;;;0.97;0.60;;;;;;;;;;4948749;29;20051;-79
2021/01/22 13:37:05;;;;;;;1.37;0.63;;;;;;;;;;4948821;29;20032;-79
2021/01/22 13:39:31;;;;;;;1.37;0.80;;;;;;;;;;4948317;28;20444;-78
2021/01/22 13:41:58;;;;;;;3.33;1.27;;;;;;;;;;4948581;29;20082;-77
2021/01/22 13:44:24;;;;;;;1.73;0.67;;;;;;;;;;4948510;29;20167;-77
2021/01/22 13:46:50;;;;;;;2.83;0.70;;;;;;;;;;4948731;29;20071;-78
2021/01/22 13:49:16;;;;;;;2.27;0.60;;;;;;;;;;4931980;29;20071;-77
2021/01/22 13:51:42;;;;;;;2.47;0.80;;;;;;;;;;4948516;28;20056;-77
2021/01/22 13:54:08;;;;;;;2.13;0.63;;;;;;;;;;4947709;28;20509;-78
2021/01/22 13:56:34;;;;;;;1.97;0.60;;;;;;;;;;4948258;28;20032;-78
2021/01/22 13:59:01;;;;;;;0.97;0.53;;;;;;;;;;4941961;28;20095;-78
2021/01/22 14:01:27;;;;;;;4.77;2.07;;;;;;;;;;4947041;29;20037;-78
2021/01/22 14:03:53;;;;;;;4.83;1.90;;;;;;;;;;4947452;28;20030;-76
2021/01/22 14:06:19;;;;;;;4.80;1.43;;;;;;;;;;4940702;28;20091;-76
2021/01/22 14:08:45;;;;;;;4.57;1.83;;;;;;;;;;4928870;29;20031;-78
2021/01/22 14:11:11;;;;;;;5.50;2.10;;;;;;;;;;4947083;29;20524;-77
2021/01/22 14:13:37;;;;;;;5.67;2.23;;;;;;;;;;4929708;29;20023;-78
2021/01/22 14:16:03;;;;;;;7.03;2.20;;;;;;;;;;4919508;29;20521;-77
2021/01/22 14:18:30;;;;;;;4.73;1.80;;;;;;;;;;4928370;29;20032;-77
2021/01/22 14:20:56;;;;;;;6.10;2.23;;;;;;;;;;4928189;29;20034;-77
2021/01/22 14:23:22;;;;;;;5.63;1.57;;;;;;;;;;4930174;29;20103;-78
2021/01/22 14:25:48;;;;;;;3.83;1.67;;;;;;;;;;4944693;28;20038;-78
2021/01/22 14:28:14;;;;;;;4.03;1.43;;;;;;;;;;4943804;28;20067;-77
2021/01/22 14:30:41;;;;;;;6.40;1.70;;;;;;;;;;4954643;29;20036;-77
2021/01/22 14:33:07;;;;;;;5.50;2.03;;;;;;;;;;4931965;29;20807;-78
2021/01/22 14:35:33;;;;;;;5.17;2.07;;;;;;;;;;4951367;28;20982;-78
2021/01/22 14:37:59;;;;;;;4.10;1.57;;;;;;;;;;4949346;28;20090;-78
2021/01/22 14:40:25;;;;;;;4.90;2.10;;;;;;;;;;4948941;29;20023;-78
2021/01/22 14:42:51;;;;;;;6.73;1.90;;;;;;;;;;4932660;29;20037;-78
2021/01/22 14:45:18;;;;;;;5.50;2.03;;;;;;;;;;4944766;29;20063;-77